Time;durP1;ratioP1;P1;durP2;ratioP2;P2;SDS_P1;SDS_P2;PMS_P1;PMS_P2;Temp;Humidity;BMP_temperature;BMP_pressure;BME280_temperature;BME280_humidity;BME280_pressure;Samples;Min_cycle;Max_cycle;Signal;HPM_P1;HPM_P2
2022/09/14 00:00:50;;;;;;;3.88;0.77;;;;;;;17.10;73.72;100966.13;4999198;28;20100;-84
2022/09/14 00:03:16;;;;;;;1.20;0.80;;;;;;;17.08;73.78;100960.94;4999070;28;20034;-84
2022/09/14 00:05:41;;;;;;;1.67;0.52;;;;;;;17.08;73.86;100960.94;5017435;28;20281;-84
2022/09/14 00:08:07;;;;;;;1.30;0.50;;;;;;;17.10;74.09;100960.81;4998124;28;20026;-84
2022/09/14 00:10:36;;;;;;;0.95;0.50;;;;;;;17.10;74.04;100955.53;4999604;28;20046;-84
2022/09/14 00:13:02;;;;;;;2.42;0.80;;;;;;;17.06;74.14;100946.94;4998284;28;20335;-85
2022/09/14 00:15:27;;;;;;;2.75;0.93;;;;;;;17.06;73.95;100948.72;4982248;28;20112;-84
2022/09/14 00:17:53;;;;;;;1.85;0.70;;;;;;;17.05;74.03;100944.41;4981604;28;20321;-85
2022/09/14 00:20:18;;;;;;;5.35;0.90;;;;;;;17.00;73.86;100947.34;5016729;28;20037;-84
2022/09/14 00:22:43;;;;;;;4.10;1.00;;;;;;;17.00;74.15;100941.22;4998266;28;20046;-84
2022/09/14 00:25:09;;;;;;;1.75;0.70;;;;;;;17.00;74.03;100938.56;4998613;28;20044;-84
2022/09/14 00:27:34;;;;;;;1.77;0.40;;;;;;;17.00;74.23;100941.22;4998839;28;20026;-84
2022/09/14 00:30:00;;;;;;;1.02;0.43;;;;;;;16.99;73.83;100935.06;4998785;28;20061;-84
2022/09/14 00:32:25;;;;;;;2.13;0.63;;;;;;;17.00;73.78;100935.91;4998232;28;20228;-84
2022/09/14 00:34:50;;;;;;;1.17;0.50;;;;;;;17.00;74.00;100935.91;5015580;28;20264;-84
2022/09/14 00:37:16;;;;;;;1.45;0.60;;;;;;;16.99;73.99;100935.06;4998213;28;20087;-84
2022/09/14 00:39:41;;;;;;;3.38;0.68;;;;;;;17.00;74.02;100930.63;4983015;28;20045;-84
2022/09/14 00:42:13;;;;;;;0.85;0.50;;;;;;;17.02;74.03;100936.66;4981569;28;20139;-84
2022/09/14 00:44:38;;;;;;;1.40;0.68;;;;;;;17.02;74.02;100926.91;5015692;28;20100;-84
2022/09/14 00:47:04;;;;;;;1.80;0.70;;;;;;;17.02;74.27;100926.91;5015540;28;20017;-84
2022/09/14 00:49:38;;;;;;;1.05;0.50;;;;;;;17.01;73.69;100925.25;4982722;28;20883;-84
2022/09/14 00:52:09;;;;;;;1.08;0.50;;;;;;;17.00;73.80;100917.41;5015266;28;20229;-84
2022/09/14 00:54:51;;;;;;;1.90;0.60;;;;;;;16.99;73.65;100913.91;5012542;28;20030;-84
2022/09/14 00:57:18;;;;;;;1.38;0.60;;;;;;;16.97;73.59;100899.06;5012590;28;20032;-84
2022/09/14 00:59:47;;;;;;;2.40;0.50;;;;;;;16.97;73.53;100899.94;5021500;28;20075;-84
2022/09/14 01:02:15;;;;;;;1.95;0.85;;;;;;;16.95;73.46;100895.69;4997490;28;20048;-84
2022/09/14 01:04:42;;;;;;;;;;;;;;;16.93;73.30;100887.84;5015450;28;20033;-84
2022/09/14 01:07:17;;;;;;;;;;;;;;;16.93;73.50;100885.19;5015952;28;19998;-84
2022/09/14 01:09:50;;;;;;;;;;;;;;;16.90;73.55;100888.06;5008821;28;19948;-84
2022/09/14 01:12:34;;;;;;;;;;;;;;;16.91;73.54;100879.16;5035702;28;19913;-84
2022/09/14 01:14:59;;;;;;;;;;;;;;;16.92;73.64;100880.00;5029026;28;20121;-84
2022/09/14 01:17:33;;;;;;;;;;;;;;;16.87;73.13;100875.03;4997772;28;19921;-84
2022/09/14 01:20:15;;;;;;;;;;;;;;;16.86;73.40;100881.28;5003537;28;19917;-84
2022/09/14 01:22:47;;;;;;;;;;;;;;;16.86;73.50;100863.63;5033481;28;19948;-84
2022/09/14 01:25:25;;;;;;;;;;;;;;;16.86;73.62;100868.03;5009255;28;20119;-84
2022/09/14 01:27:51;;;;;;;;;;;;;;;16.87;73.67;100869.75;5035549;28;20073;-84
2022/09/14 01:30:21;;;;;;;;;;;;;;;16.85;73.61;100869.00;5008645;28;19984;-84
2022/09/14 01:32:53;;;;;;;;;;;;;;;16.85;73.50;100871.66;5035162;28;20192;-84
2022/09/14 01:35:34;;;;;;;;;;;;;;;16.85;73.54;100861.06;5026912;28;19970;-84
2022/09/14 01:38:01;;;;;;;;;;;;;;;16.83;73.65;100855.88;5035105;28;19932;-84
2022/09/14 01:40:43;;;;;;;;;;;;;;;16.83;73.70;100858.53;5001048;28;20225;-84
2022/09/14 01:43:11;;;;;;;;;;;;;;;16.83;73.74;100855.03;5015332;28;19991;-84
2022/09/14 01:45:42;;;;;;;;;;;;;;;16.84;73.97;100856.72;5022128;28;19923;-84
2022/09/14 01:48:09;;;;;;;;;;;;;;;16.85;74.01;100858.44;5035113;28;19980;-84
2022/09/14 01:50:43;;;;;;;;;;;;;;;16.82;74.25;100851.50;5005814;28;20378;-84
2022/09/14 01:53:14;;;;;;;;;;;;;;;16.82;74.06;100850.66;5017468;28;20241;-84
2022/09/14 01:56:00;;;;;;;;;;;;;;;16.82;74.37;100848.00;5029109;28;19917;-85
2022/09/14 01:58:30;;;;;;;;;;;;;;;16.82;74.24;100851.50;5014945;28;19913;-84
2022/09/14 02:00:57;;;;;;;;;;;;;;;16.82;74.26;100840.06;5026644;28;19918;-84
2022/09/14 02:03:28;;;;;;;;;;;;;;;16.81;74.39;100836.59;5015766;28;20197;-84
2022/09/14 02:06:06;;;;;;;;;;;;;;;16.82;74.49;100842.72;5033415;28;19917;-84
2022/09/14 02:08:32;;;;;;;;;;;;;;;16.82;74.68;100837.44;5034698;28;19919;-84
2022/09/14 02:10:58;;;;;;;;;;;;;;;16.81;74.61;100831.31;5021208;28;19924;-84
2022/09/14 02:13:24;;;;;;;;;;;;;;;16.79;74.60;100832.34;5001474;28;19921;-84
2022/09/14 02:15:49;;;;;;;;;;;;;;;16.77;74.69;100828.97;5030079;28;20234;-84
2022/09/14 02:18:15;;;;;;;;;;;;;;;16.77;74.70;100831.59;5030409;28;19952;-84
2022/09/14 02:20:49;;;;;;;;;;;;;;;16.76;74.87;100833.41;5011372;28;19921;-84
2022/09/14 02:23:14;;;;;;;;;;;;;;;16.75;74.57;100838.78;5015322;28;19918;-84
2022/09/14 02:25:40;;;;;;;;;;;;;;;16.72;74.76;100831.06;5030978;28;19952;-84
2022/09/14 02:28:05;;;;;;;;;;;;;;;16.71;74.96;100827.56;5015196;28;20519;-84
2022/09/14 02:30:35;;;;;;;;;;;;;;;16.69;74.67;100829.47;5011834;28;19917;-84
2022/09/14 02:33:09;;;;;;;;;;;;;;;16.65;75.01;100825.34;5014941;28;20196;-84
2022/09/14 02:35:40;;;;;;;;;;;;;;;16.63;75.10;100822.81;5019159;28;19913;-84
2022/09/14 02:38:11;;;;;;;;;;;;;;;16.59;74.84;100815.16;5038271;28;19948;-84
2022/09/14 02:40:45;;;;;;;;;;;;;;;16.59;75.06;100816.03;5022136;28;19999;-84
2022/09/14 02:43:16;;;;;;;;;;;;;;;16.57;75.27;100809.13;5038178;28;19999;-84
2022/09/14 02:45:41;;;;;;;;;;;;;;;16.58;75.51;100802.91;5016654;28;19917;-85
2022/09/14 02:48:11;;;;;;;;;;;;;;;16.57;75.09;100793.28;5020223;28;19916;-84
2022/09/14 02:50:48;;;;;;;;;;;;;;;16.54;75.63;100786.41;5023119;28;19917;-84
2022/09/14 02:53:14;;;;;;;;;;;;;;;16.56;75.51;100796.88;5000746;28;19921;-84
2022/09/14 02:55:43;;;;;;;;;;;;;;;16.54;75.79;100789.03;5018346;28;20255;-84
2022/09/14 02:58:10;;;;;;;;;;;;;;;16.54;75.47;100789.03;5019154;28;19925;-84
2022/09/14 03:00:40;;;;;;;;;;;;;;;16.56;75.72;100786.31;5014936;28;19921;-84
2022/09/14 03:03:06;;;;;;;;;;;;;;;16.56;75.72;100779.22;5017934;28;19921;-84
2022/09/14 03:05:32;;;;;;;;;;;;;;;16.57;75.58;100785.34;5017951;28;19912;-84
2022/09/14 03:07:57;;;;;;;;;;;;;;;16.57;75.84;100783.56;5016395;28;19992;-84
2022/09/14 03:10:23;;;;;;;;;;;;;;;16.59;75.61;100778.16;5018960;28;20139;-84
2022/09/14 03:12:48;;;;;;;;;;;;;;;16.59;75.60;100779.03;5023097;28;19917;-84
2022/09/14 03:15:13;;;;;;;;;;;;;;;16.59;75.44;100779.03;5030221;28;19940;-84
2022/09/14 03:17:39;;;;;;;;;;;;;;;16.59;75.20;100778.16;5024781;28;19948;-84
2022/09/14 03:20:04;;;;;;;;;;;;;;;16.59;75.60;100778.16;5018273;28;20258;-84
2022/09/14 03:22:31;;;;;;;;;;;;;;;16.58;75.26;100776.47;5011173;28;19992;-84
2022/09/14 03:24:56;;;;;;;;;;;;;;;16.58;75.28;100769.38;5037367;28;20200;-84
2022/09/14 03:27:21;;;;;;;;;;;;;;;16.56;75.45;100763.34;5011373;28;19961;-84
2022/09/14 03:29:47;;;;;;;;;;;;;;;16.54;75.26;100756.47;5030640;28;19951;-84
2022/09/14 03:32:12;;;;;;;;;;;;;;;16.54;75.57;100757.31;5030734;28;19947;-84
2022/09/14 03:34:37;;;;;;;;;;;;;;;16.50;75.78;100753.19;5018091;28;20189;-84
2022/09/14 03:37:03;;;;;;;;;;;;;;;16.49;76.00;100746.22;5032972;28;20238;-84
2022/09/14 03:39:28;;;;;;;;;;;;;;;16.48;76.08;100752.44;5019577;28;19917;-84
2022/09/14 03:41:53;;;;;;;;;;;;;;;16.50;76.10;100755.84;5016143;28;20262;-84
2022/09/14 03:44:19;;;;;;;;;;;;;;;16.50;75.97;100748.75;4999964;28;19913;-84
2022/09/14 03:46:44;;;;;;;;;;;;;;;16.50;75.62;100753.19;4983548;28;19923;-84
2022/09/14 03:49:10;;;;;;;;;;;;;;;16.49;75.63;100746.22;4990013;28;19952;-84
2022/09/14 03:51:35;;;;;;;;;;;;;;;16.49;75.87;100749.69;5036758;28;20193;-84
2022/09/14 03:54:00;;;;;;;;;;;;;;;16.49;76.15;100748.84;5018447;28;19913;-84
2022/09/14 03:56:26;;;;;;;;;;;;;;;16.49;76.19;100743.56;5019348;28;20018;-84
2022/09/14 03:58:51;;;;;;;;;;;;;;;16.46;76.08;100743.75;5001154;28;20120;-84
2022/09/14 04:01:18;;;;;;;;;;;;;;;16.48;76.19;100747.13;5035672;28;19916;-84
2022/09/14 04:03:43;;;;;;;;;;;;;;;16.47;76.40;100751.59;5021886;28;20021;-84
2022/09/14 04:06:08;;;;;;;;;;;;;;;16.48;76.15;100758.59;4979582;28;20179;-84
2022/09/14 04:08:35;;;;;;;;;;;;;;;16.50;75.97;100764.63;5015340;28;19927;-84
2022/09/14 04:11:06;;;;;;;;;;;;;;;16.51;76.20;100765.44;4999558;28;19913;-84
2022/09/14 04:13:32;;;;;;;;;;;;;;;16.52;76.30;100759.22;5028930;28;20089;-84
2022/09/14 04:15:58;;;;;;;;;;;;;;;16.54;75.98;100767.06;5018736;28;19924;-84
2022/09/14 04:18:24;;;;;;;;;;;;;;;16.55;75.95;100766.09;5032859;28;19920;-84
2022/09/14 04:21:15;;;;;;;;;;;;;;;16.55;76.03;100763.44;5019137;28;19994;-84
2022/09/14 04:23:41;;;;;;;;;;;;;;;16.56;75.96;100766.00;5003948;28;19972;-84
2022/09/14 04:26:11;;;;;;;;;;;;;;;16.54;75.87;100767.91;4982840;28;19925;-84
2022/09/14 04:28:36;;;;;;;;;;;;;;;16.55;76.20;100766.94;5031440;28;19920;-84
2022/09/14 04:31:02;;;;;;;;;;;;;;;16.56;75.95;100763.34;5018480;28;19917;-84
2022/09/14 04:33:32;;;;;;;;;;;;;;;16.57;76.22;100758.91;5026917;28;20148;-84
2022/09/14 04:36:04;;;;;;;;;;;;;;;16.57;76.08;100754.47;5016475;28;20243;-84
2022/09/14 04:38:31;;;;;;;;;;;;;;;16.57;76.09;100754.47;5003259;28;19916;-84
2022/09/14 04:40:56;;;;;;;;;;;;;;;16.57;76.18;100757.13;5022180;28;19921;-84
2022/09/14 04:43:23;;;;;;;;;;;;;;;16.57;76.07;100754.47;5016664;28;19932;-84
2022/09/14 04:45:48;;;;;;;;;;;;;;;16.58;76.00;100757.97;5030760;28;20007;-84
2022/09/14 04:48:13;;;;;;;;;;;;;;;16.58;76.29;100757.97;5001314;28;19988;-84
2022/09/14 04:50:39;;;;;;;;;;;;;;;16.57;76.08;100750.97;5016283;28;19948;-84
2022/09/14 04:53:04;;;;;;;;;;;;;;;16.57;76.23;100749.19;5002208;28;19924;-84
2022/09/14 04:55:29;;;;;;;;;;;;;;;16.57;76.26;100741.25;5017794;28;20422;-84
2022/09/14 04:57:55;;;;;;;;;;;;;;;16.56;76.34;100736.06;4993287;28;20159;-84
2022/09/14 05:00:20;;;;;;;;;;;;;;;16.56;76.16;100728.97;4970848;28;19923;-84
2022/09/14 05:02:46;;;;;;;;;;;;;;;16.55;76.10;100729.91;5032776;28;20295;-84
2022/09/14 05:05:11;;;;;;;;;;;;;;;16.56;76.09;100728.97;4982245;28;19924;-84
2022/09/14 05:07:36;;;;;;;;;;;;;;;16.55;76.04;100732.56;5017298;28;20227;-84
2022/09/14 05:10:02;;;;;;;;;;;;;;;16.56;76.25;100730.78;5001583;28;19948;-84
2022/09/14 05:12:28;;;;;;;;;;;;;;;16.55;76.31;100724.63;5035501;28;20124;-85
2022/09/14 05:14:53;;;;;;;;;;;;;;;16.55;76.17;100729.09;5017833;28;19917;-84
2022/09/14 05:17:19;;;;;;;;;;;;;;;16.54;76.34;100728.25;4998282;28;19924;-85
2022/09/14 05:19:44;;;;;;;;;;;;;;;16.54;76.56;100733.53;5008826;28;19919;-85
2022/09/14 05:22:09;;;;;;;;;;;;;;;16.54;76.22;100730.06;5002529;28;20004;-84
2022/09/14 05:24:35;;;;;;;;;;;;;;;16.53;76.14;100731.00;5003111;28;19917;-85
2022/09/14 05:27:00;;;;;;;;;;;;;;;16.53;76.38;100745.03;5015817;28;19967;-85
2022/09/14 05:29:25;;;;;;;;;;;;;;;16.53;76.50;100738.91;5017532;28;19913;-85
2022/09/14 05:31:51;;;;;;;;;;;;;;;16.52;76.08;100743.38;4982452;28;19921;-85
2022/09/14 05:34:16;;;;;;;;;;;;;;;16.50;76.29;100735.53;5021309;28;19928;-84
2022/09/14 05:36:42;;;;;;;;;;;;;;;16.50;76.22;100735.53;5017346;28;19937;-85
2022/09/14 05:39:07;;;;;;;;;;;;;;;16.50;76.32;100735.53;5022114;28;20149;-84
2022/09/14 05:41:32;;;;;;;;;;;;;;;16.50;76.36;100746.09;4998136;28;20117;-85
2022/09/14 05:43:58;;;;;;;;;;;;;;;16.50;76.29;100753.19;5005062;28;19932;-85
2022/09/14 05:46:24;;;;;;;;;;;;;;;16.49;76.24;100748.84;5027607;28;19921;-85
2022/09/14 05:48:50;;;;;;;;;;;;;;;16.49;76.39;100746.22;5006234;28;19984;-85
2022/09/14 05:51:16;;;;;;;;;;;;;;;16.49;76.19;100746.22;5029865;28;19945;-85
2022/09/14 05:53:45;;;;;;;;;;;;;;;16.48;76.25;100740.09;5001436;28;19948;-85
2022/09/14 05:56:12;;;;;;;;;;;;;;;16.48;76.30;100732.16;5006779;28;20110;-85
2022/09/14 05:58:38;;;;;;;;;;;;;;;16.48;76.19;100737.44;5028997;28;19948;-85
2022/09/14 06:01:11;;;;;;;;;;;;;;;16.47;76.16;100733.09;5020501;28;19917;-84
2022/09/14 06:03:37;;;;;;;;;;;;;;;16.47;76.30;100734.91;5031578;28;19917;-84
2022/09/14 06:06:03;;;;;;;;;;;;;;;16.46;75.94;100743.75;5015291;28;19924;-84
2022/09/14 06:08:29;;;;;;;;;;;;;;;16.45;76.32;100740.28;5035591;28;19963;-85
2022/09/14 06:10:54;;;;;;;;;;;;;;;16.45;76.13;100742.09;5018404;28;19940;-84
2022/09/14 06:13:21;;;;;;;;;;;;;;;16.44;76.11;100743.00;4999791;28;19932;-84
2022/09/14 06:15:47;;;;;;;;;;;;;;;16.45;76.22;100731.50;5015619;28;20263;-85
2022/09/14 06:18:12;;;;;;;;;;;;;;;16.43;76.26;100736.91;5017602;28;19987;-84
2022/09/14 06:20:37;;;;;;;;;;;;;;;16.43;76.01;100738.69;5013971;28;19929;-84
2022/09/14 06:23:03;;;;;;;;;;;;;;;16.41;76.04;100737.94;5016117;28;19926;-84
2022/09/14 06:25:28;;;;;;;;;;;;;;;16.40;76.04;100729.16;4995976;28;20306;-84
2022/09/14 06:27:53;;;;;;;;;;;;;;;16.42;76.23;100721.13;4998533;28;19917;-84
2022/09/14 06:30:19;;;;;;;;;;;;;;;16.41;76.02;100716.78;5018815;28;19917;-85
2022/09/14 06:32:44;;;;;;;;;;;;;;;16.40;76.12;100710.66;5020295;28;20044;-84
2022/09/14 06:35:09;;;;;;;;;;;;;;;16.41;76.14;100719.44;4997164;28;19921;-84
2022/09/14 06:37:35;;;;;;;;;;;;;;;16.41;76.18;100714.13;5016592;28;19948;-84
2022/09/14 06:40:00;;;;;;;;;;;;;;;16.40;76.00;100712.47;5008305;28;19927;-84
2022/09/14 06:42:27;;;;;;;;;;;;;;;16.39;75.88;100709.00;5018344;28;20071;-84
2022/09/14 06:44:53;;;;;;;;;;;;;;;16.39;76.00;100703.69;5023859;28;19917;-84
2022/09/14 06:47:18;;;;;;;;;;;;;;;16.41;76.39;100700.94;5003725;28;19924;-84
2022/09/14 06:49:43;;;;;;;;;;;;;;;16.40;76.12;100712.47;5005223;28;19921;-84
2022/09/14 06:52:08;;;;;;;;;;;;;;;16.39;76.28;100708.13;5003323;28;19924;-84
2022/09/14 06:54:34;;;;;;;;;;;;;;;16.38;75.94;100709.09;5000825;28;19925;-84
2022/09/14 06:56:59;;;;;;;;;;;;;;;16.37;76.15;100702.09;5031656;28;19964;-84
2022/09/14 06:59:24;;;;;;;;;;;;;;;16.36;76.20;100705.69;5020767;28;19921;-84
2022/09/14 07:01:50;;;;;;;;;;;;;;;16.35;76.15;100706.63;5021315;28;19952;-85
2022/09/14 07:04:16;;;;;;;;;;;;;;;16.36;76.29;100710.97;4999999;28;20367;-84
2022/09/14 07:06:48;;;;;;;;;;;;;;;16.31;76.14;100712.13;5006535;28;19947;-85
2022/09/14 07:09:14;;;;;;;;;;;;;;;16.30;76.13;100712.25;5016889;28;19913;-84
2022/09/14 07:11:39;;;;;;;;;;;;;;;16.29;76.20;100714.03;4999639;28;20243;-84
2022/09/14 07:14:05;;;;;;;;;;;;;;;16.28;76.34;100699.13;5017137;28;20216;-84
2022/09/14 07:16:31;;;;;;;;;;;;;;;16.27;76.39;100693.94;5013751;28;19976;-85
2022/09/14 07:18:58;;;;;;;;;;;;;;;16.26;76.13;100702.81;5007345;28;19928;-84
2022/09/14 07:21:23;;;;;;;;;;;;;;;16.27;76.17;100701.88;5016240;28;19925;-84
2022/09/14 07:23:49;;;;;;;;;;;;;;;16.26;76.18;100703.69;4994588;28;19926;-84
2022/09/14 07:26:14;;;;;;;;;;;;;;;16.27;76.12;100701.88;5015810;28;19924;-84
2022/09/14 07:28:40;;;;;;;;;;;;;;;16.26;76.17;100693.09;5017853;28;19925;-85
2022/09/14 07:31:21;;;;;;;;;;;;;;;16.25;76.17;100701.97;5017458;28;19924;-85
2022/09/14 07:33:47;;;;;;;;;;;;;;;16.24;76.21;100707.34;5013154;28;19918;-84
2022/09/14 07:36:13;;;;;;;;;;;;;;;16.22;76.29;100710.09;4993987;28;19924;-85
2022/09/14 07:38:38;;;;;;;;;;;;;;;16.22;76.26;100704.81;4998976;28;19989;-85
2022/09/14 07:41:04;;;;;;;;;;;;;;;16.24;76.28;100715.28;4999122;28;19917;-84
2022/09/14 07:43:29;;;;;;;;;;;;;;;16.24;76.18;100715.28;5012392;28;19991;-85
2022/09/14 07:46:00;;;;;;;;;;;;;;;16.22;75.89;100717.19;4994626;28;19917;-85
2022/09/14 07:48:25;;;;;;;;;;;;;;;16.21;75.90;100712.81;4996848;28;19928;-85
2022/09/14 07:51:04;;;;;;;;;;;;;;;16.19;75.81;100709.44;4997505;28;19917;-84
2022/09/14 07:53:30;;;;;;;;;;;;;;;16.10;75.90;100710.94;5019413;28;20220;-85
2022/09/14 07:56:02;;;;;;;;;;;;;;;16.09;75.80;100703.94;5003257;28;19975;-85
2022/09/14 07:58:27;;;;;;;;;;;;;;;16.07;76.12;100708.47;5014989;28;19944;-85
2022/09/14 08:01:03;;;;;;;;;;;;;;;16.06;76.20;100707.63;5015321;28;19925;-84
2022/09/14 08:03:30;;;;;;;;;;;;;;;16.06;76.49;100709.41;5018699;28;20258;-84
2022/09/14 08:06:03;;;;;;;;;;;;;;;16.07;76.27;100711.13;5018010;28;19922;-84
2022/09/14 08:08:29;;;;;;;;;;;;;;;16.03;76.85;100712.28;4999224;28;19916;-84
2022/09/14 08:10:56;;;;;;;;;;;;;;;15.98;76.67;100709.91;5015422;28;19918;-85
2022/09/14 08:13:22;;;;;;;;;;;;;;;15.97;77.00;100710.88;5015865;28;20166;-84
2022/09/14 08:15:47;;;;;;;;;;;;;;;15.97;76.74;100702.97;4982400;28;20004;-84
2022/09/14 08:18:12;;;;;;;;;;;;;;;15.96;76.95;100695.13;4997446;28;19964;-84
2022/09/14 08:20:38;;;;;;;;;;;;;;;15.99;77.13;100700.19;5030530;28;19921;-84
2022/09/14 08:23:03;;;;;;;;;;;;;;;15.99;77.36;100690.50;5016009;28;20079;-84
2022/09/14 08:25:28;;;;;;;;;;;;;;;16.00;77.58;100694.81;5021068;28;19917;-84
2022/09/14 08:27:55;;;;;;;;;;;;;;;16.00;77.76;100688.69;5024148;28;19921;-84
2022/09/14 08:30:20;;;;;;;;;;;;;;;16.02;77.85;100697.34;5029337;28;20250;-84
2022/09/14 08:32:45;;;;;;;;;;;;;;;16.04;77.48;100708.66;4996496;28;19921;-85
2022/09/14 08:35:11;;;;;;;;;;;;;;;16.05;77.63;100705.09;4982134;28;20213;-84
2022/09/14 08:37:37;;;;;;;;;;;;;;;16.05;77.98;100703.28;4997680;28;19964;-84
2022/09/14 08:40:02;;;;;;;;;;;;;;;16.04;77.49;100706.03;5016290;28;19913;-84
2022/09/14 08:42:27;;;;;;;;;;;;;;;16.01;77.37;100704.44;5015485;28;19936;-84
2022/09/14 08:45:01;;;;;;;;;;;;;;;16.01;77.76;100706.22;4999130;28;19913;-85
2022/09/14 08:47:37;;;;;;;;;;;;;;;15.99;77.51;100690.50;5021468;28;19917;-85
2022/09/14 08:50:08;;;;;;;;;;;;;;;16.00;77.42;100686.88;5015730;28;19980;-84
2022/09/14 08:52:34;;;;;;;;;;;;;;;16.01;77.53;100691.25;4998821;28;20168;-84
2022/09/14 08:55:00;;;;;;;;;;;;;;;16.03;77.57;100691.16;5015765;28;20177;-84
2022/09/14 08:57:39;;;;;;;;;;;;;;;16.02;77.73;100694.72;4995381;28;19954;-84
2022/09/14 09:00:11;;;;;;;;;;;;;;;16.01;77.48;100696.53;5013234;28;19964;-84
2022/09/14 09:02:39;;;;;;;;;;;;;;;16.03;77.46;100688.50;5027047;28;19921;-84
2022/09/14 09:05:27;;;;;;;;;;;;;;;16.02;77.73;100692.06;5015645;28;19920;-84
2022/09/14 09:07:53;;;;;;;;;;;;;;;16.02;77.10;100695.56;4986852;28;20271;-85
2022/09/14 09:10:18;;;;;;;;;;;;;;;16.01;76.56;100688.59;5006012;28;19969;-84
2022/09/14 09:12:52;;;;;;;;;;;;;;;15.99;76.56;100694.91;5013694;28;19917;-84
2022/09/14 09:15:17;;;;;;;;;;;;;;;15.96;76.27;100695.13;4990850;28;19914;-85
2022/09/14 09:17:45;;;;;;;;;;;;;;;15.93;76.26;100697.03;5011670;28;19970;-84
2022/09/14 09:20:21;;;;;;;;;;;;;;;15.93;76.38;100691.75;5015379;28;19909;-84
2022/09/14 09:22:51;;;;;;;;;;;;;;;15.89;76.18;100695.50;5013370;28;19979;-84
2022/09/14 09:25:22;;;;;;;;;;;;;;;15.89;76.48;100686.75;5017242;28;19928;-84
2022/09/14 09:27:47;;;;;;;;;;;;;;;15.91;76.25;100690.13;5014206;28;19909;-84
2022/09/14 09:30:13;;;;;;;;;;;;;;;15.95;76.52;100690.78;5028944;28;19932;-84
2022/09/14 09:32:38;;;;;;;;;;;;;;;15.94;76.63;100687.31;5001685;28;19917;-84
2022/09/14 09:35:04;;;;;;;;;;;;;;;15.97;76.44;100689.75;4984217;28;20070;-84
2022/09/14 09:37:31;;;;;;;;;;;;;;;15.96;76.71;100692.50;4996421;28;19932;-84
2022/09/14 09:39:56;;;;;;;;;;;;;;;15.98;76.91;100687.94;5017697;28;19992;-84
2022/09/14 09:42:22;;;;;;;;;;;;;;;16.00;76.82;100683.41;5021545;28;19921;-84
2022/09/14 09:44:55;;;;;;;;;;;;;;;16.00;76.96;100686.88;5003704;28;20021;-84
2022/09/14 09:47:25;;;;;;;;;;;;;;;16.00;76.76;100680.78;5020914;28;19924;-85
2022/09/14 09:49:56;;;;;;;;;;;;;;;16.01;76.85;100679.81;5020164;28;20111;-84
2022/09/14 09:52:21;;;;;;;;;;;;;;;15.99;77.32;100674.66;5032112;28;19992;-84
2022/09/14 09:54:51;;;;;;;;;;;;;;;16.00;76.81;100670.22;5018307;28;20432;-84
2022/09/14 09:57:26;;;;;;;;;;;;;;;16.03;77.18;100676.13;4999874;28;19944;-80
2022/09/14 10:00:06;;;;;;;;;;;;;;;16.05;77.17;100678.69;5020507;28;19924;-80
2022/09/14 10:02:32;;;;;;;;;;;;;;;16.05;77.23;100673.41;5014495;28;19918;-80
2022/09/14 10:05:10;;;;;;;;;;;;;;;16.06;76.83;100680.34;5017999;28;20248;-80
2022/09/14 10:07:55;;;;;;;;;;;;;;;16.07;76.60;100684.69;5028366;28;19920;-80
2022/09/14 10:10:44;;;;;;;;;;;;;;;16.07;76.35;100689.97;5010131;28;20205;-80
2022/09/14 10:13:33;;;;;;;;;;;;;;;16.11;76.51;100689.66;5029800;28;19917;-80
2022/09/14 10:16:05;;;;;;;;;;;;;;;16.12;76.67;100686.09;4953015;28;20244;-80
2022/09/14 10:18:30;;;;;;;;;;;;;;;16.15;76.67;100681.53;4980243;28;19983;-80
2022/09/14 10:20:58;;;;;;;;;;;;;;;16.12;76.87;100686.09;4997139;28;19921;-80
2022/09/14 10:23:25;;;;;;;;;;;;;;;16.13;76.65;100686.94;4995397;28;19924;-81
2022/09/14 10:25:52;;;;;;;;;;;;;;;16.15;76.90;100684.19;4992946;28;19917;-80
2022/09/14 10:28:22;;;;;;;;;;;;;;;16.18;76.61;100682.19;4984156;28;19984;-80
2022/09/14 10:31:11;;;;;;;;;;;;;;;16.18;76.47;100684.81;4997181;28;19945;-80
2022/09/14 10:33:36;;;;;;;;;;;;;;;16.16;76.23;100691.19;4985063;28;19948;-81
2022/09/14 10:36:07;;;;;;;;;;;;;;;16.16;76.25;100686.72;4981865;28;20005;-80
2022/09/14 10:38:36;;;;;;;;;;;;;;;16.15;76.39;100677.09;4994681;28;19925;-80
2022/09/14 10:41:01;;;;;;;;;;;;;;;16.14;76.76;100675.44;4970239;28;20113;-81
2022/09/14 10:43:29;;;;;;;;;;;;;;;16.15;76.57;100679.75;4983866;28;19976;-80
2022/09/14 10:45:57;;;;;;;;;;;;;;;16.15;76.34;100679.75;4996068;28;20232;-80
2022/09/14 10:48:35;;;;;;;;;;;;;;;16.17;76.39;100675.22;4987662;28;19944;-80
2022/09/14 10:51:10;;;;;;;;;;;;;;;16.20;76.28;100676.81;4974923;28;20286;-80
2022/09/14 10:53:55;;;;;;;;;;;;;;;16.21;76.40;100682.00;4977601;28;20281;-81
2022/09/14 10:56:22;;;;;;;;;;;;;;;16.23;76.36;100681.91;4982356;28;20036;-80
2022/09/14 10:58:54;;;;;;;;;;;;;;;16.23;75.98;100673.97;4992140;28;20161;-80
2022/09/14 11:01:46;;;;;;;;;;;;;;;16.25;76.32;100674.72;5002505;28;20109;-80
2022/09/14 11:04:14;;;;;;;;;;;;;;;16.25;76.22;100675.53;4994274;28;20122;-80
2022/09/14 11:06:40;;;;;;;;;;;;;;;16.27;76.59;100675.44;4995497;28;20209;-81
2022/09/14 11:09:14;;;;;;;;;;;;;;;16.27;76.26;100676.28;4998158;28;19918;-80
2022/09/14 11:11:46;;;;;;;;;;;;;;;16.29;76.57;100670.91;4992620;28;19921;-81
2022/09/14 11:14:14;;;;;;;;;;;;;;;16.34;76.58;100675.88;4993869;28;19952;-80
2022/09/14 11:16:51;;;;;;;;;;;;;;;16.38;76.54;100667.63;4996733;28;19933;-80
2022/09/14 11:19:17;;;;;;;;;;;;;;;16.41;77.28;100664.78;4996660;28;19960;-81
2022/09/14 11:21:49;;;;;;;;;;;;;;;16.40;77.27;100670.19;4999314;28;20117;-81
2022/09/14 11:24:28;;;;;;;;;;;;;;;16.40;76.38;100670.19;4994617;28;19918;-81
2022/09/14 11:27:23;;;;;;;;;;;;;;;16.40;76.40;100673.66;4993555;28;19948;-81
2022/09/14 11:29:51;;;;;;;;;;;;;;;16.41;76.19;100672.72;4993694;28;19972;-82
2022/09/14 11:32:20;;;;;;;;;;;;;;;16.44;75.94;100667.22;4993634;28;19957;-81
2022/09/14 11:34:53;;;;;;;;;;;;;;;16.44;76.31;100669.84;4996153;28;19944;-81
2022/09/14 11:37:21;;;;;;;;;;;;;;;16.47;76.30;100674.09;4984194;28;19910;-81
2022/09/14 11:40:08;;;;;;;;;;;;;;;16.48;76.59;100667.84;5001883;28;19921;-81
2022/09/14 11:42:48;;;;;;;;;;;;;;;16.50;76.56;100671.25;4983326;28;20137;-81
2022/09/14 11:45:20;;;;;;;;;;;;;;;16.50;76.54;100671.25;4982378;28;19921;-81
2022/09/14 11:47:51;;;;;;;;;;;;;;;16.48;76.45;100671.34;5005450;28;19921;-81
2022/09/14 11:50:27;;;;;;;;;;;;;;;16.47;75.96;100668.81;4992876;28;19921;-81
2022/09/14 11:53:22;;;;;;;;;;;;;;;16.50;76.12;100669.44;4973193;28;19999;-81
2022/09/14 11:55:49;;;;;;;;;;;;;;;16.50;76.17;100674.75;4977701;28;19913;-81
2022/09/14 11:58:22;;;;;;;;;;;;;;;16.53;76.25;100672.84;5003342;28;19944;-81
2022/09/14 12:00:47;;;;;;;;;;;;;;;16.53;77.02;100668.38;4998395;28;19920;-81
2022/09/14 12:03:18;;;;;;;;;;;;;;;16.56;76.96;100672.63;4981732;28;19922;-81
2022/09/14 12:05:44;;;;;;;;;;;;;;;16.59;76.88;100664.47;4988085;28;19913;-81
2022/09/14 12:08:28;;;;;;;;;;;;;;;16.61;77.00;100665.25;4994520;28;19913;-81
2022/09/14 12:11:01;;;;;;;;;;;;;;;16.63;77.23;100661.53;5007753;28;19917;-81
2022/09/14 12:13:26;;;;;;;;;;;;;;;16.66;77.32;100658.69;5004389;28;19909;-81
2022/09/14 12:16:01;;;;;;;;;;;;;;;16.68;77.38;100664.69;4986970;28;20320;-81
2022/09/14 12:18:27;;;;;;;;;;;;;;;16.72;77.18;100661.81;4976955;28;20148;-81
2022/09/14 12:21:07;;;;;;;;;;;;;;;16.76;77.25;100658.03;4995073;28;19957;-81
2022/09/14 12:23:38;;;;;;;;;;;;;;;16.75;76.81;100656.34;4977169;28;19940;-81
2022/09/14 12:26:09;;;;;;;;;;;;;;;16.75;76.24;100651.88;4990210;28;19981;-81
2022/09/14 12:28:35;;;;;;;;;;;;;;;16.75;75.86;100643.94;4989493;28;19956;-81
2022/09/14 12:31:04;;;;;;;;;;;;;;;16.75;76.04;100651.03;4998533;28;20101;-81
2022/09/14 12:33:30;;;;;;;;;;;;;;;16.79;75.81;100649.88;4999096;28;19924;-81
2022/09/14 12:35:55;;;;;;;;;;;;;;;16.79;76.46;100639.28;4994745;28;19914;-81
2022/09/14 12:38:30;;;;;;;;;;;;;;;16.78;75.45;100650.84;4999023;28;20251;-81